Time;durP1;ratioP1;P1;durP2;ratioP2;P2;SDS_P1;SDS_P2;PMS_P1;PMS_P2;Temp;Humidity;BMP_temperature;BMP_pressure;BME280_temperature;BME280_humidity;BME280_pressure;Samples;Min_cycle;Max_cycle;Signal;HPM_P1;HPM_P2
2022/07/21 00:00:07;;;;;;;13.57;10.60;;;22.90;83.10;;;;;;5066912;28;20490;-71
2022/07/21 00:02:33;;;;;;;9.30;7.05;;;22.90;84.00;;;;;;5063006;28;20027;-72
2022/07/21 00:04:59;;;;;;;12.70;9.70;;;22.90;83.20;;;;;;5070311;28;20371;-72
2022/07/21 00:07:24;;;;;;;13.52;9.98;;;22.90;83.00;;;;;;5069908;28;20059;-72
2022/07/21 00:09:50;;;;;;;14.60;10.90;;;22.80;83.20;;;;;;5069421;28;20020;-73
2022/07/21 00:12:16;;;;;;;10.65;9.30;;;22.80;83.20;;;;;;5068899;28;20059;-73
2022/07/21 00:14:41;;;;;;;10.77;9.68;;;22.80;83.20;;;;;;5070328;28;20025;-72
2022/07/21 00:17:07;;;;;;;11.65;9.80;;;22.70;83.10;;;;;;5064719;28;20060;-73
2022/07/21 00:19:33;;;;;;;12.40;10.13;;;22.70;83.50;;;;;;5049786;28;20029;-72
2022/07/21 00:21:59;;;;;;;12.13;10.20;;;22.70;84.10;;;;;;5066420;28;20109;-72
2022/07/21 00:24:24;;;;;;;16.27;10.68;;;22.60;84.30;;;;;;5064896;28;20032;-72
2022/07/21 00:26:50;;;;;;;13.35;10.80;;;22.60;84.50;;;;;;5064187;28;20023;-71
2022/07/21 00:29:16;;;;;;;11.13;9.00;;;22.70;84.30;;;;;;5069452;28;20027;-71
2022/07/21 00:31:41;;;;;;;12.07;8.90;;;22.70;83.90;;;;;;5066928;28;20036;-72
2022/07/21 00:34:07;;;;;;;10.35;9.25;;;22.60;83.40;;;;;;5069128;28;20021;-72
2022/07/21 00:36:33;;;;;;;10.52;9.30;;;22.60;83.40;;;;;;5068534;28;20082;-72
2022/07/21 00:38:58;;;;;;;10.30;8.95;;;22.60;83.30;;;;;;5069456;28;20036;-73
2022/07/21 00:41:24;;;;;;;13.48;10.10;;;22.60;83.10;;;;;;5068853;28;20041;-71
2022/07/21 00:43:50;;;;;;;12.10;9.00;;;22.60;83.20;;;;;;5065789;28;20021;-72
2022/07/21 00:46:15;;;;;;;12.73;10.05;;;22.60;83.30;;;;;;5056421;28;20153;-71
2022/07/21 00:48:41;;;;;;;10.27;9.18;;;22.60;83.70;;;;;;5069227;28;20017;-71
2022/07/21 00:51:07;;;;;;;10.32;9.20;;;22.60;84.00;;;;;;5067887;28;20028;-71
2022/07/21 00:53:33;;;;;;;13.10;9.88;;;22.60;84.00;;;;;;5067687;28;20020;-73
2022/07/21 00:56:00;;;;;;;13.85;9.90;;;22.60;84.20;;;;;;5069032;28;20082;-73
2022/07/21 00:58:26;;;;;;;13.35;10.02;;;22.70;84.20;;;;;;5068173;28;20017;-73
2022/07/21 01:00:52;;;;;;;13.60;11.73;;;22.70;84.10;;;;;;5066743;28;20024;-73
2022/07/21 01:03:18;;;;;;;13.45;11.85;;;22.70;84.60;;;;;;5068403;28;20028;-73
2022/07/21 01:05:43;;;;;;;14.63;12.05;;;22.70;84.50;;;;;;5067839;28;20037;-71
2022/07/21 01:08:10;;;;;;;14.18;11.98;;;22.70;84.00;;;;;;5068650;28;20055;-72
2022/07/21 01:10:35;;;;;;;14.43;12.68;;;22.60;83.70;;;;;;5068394;28;20035;-72
2022/07/21 01:13:01;;;;;;;16.08;14.43;;;22.60;83.80;;;;;;5067404;28;20028;-72
2022/07/21 01:15:27;;;;;;;18.25;14.13;;;22.60;84.00;;;;;;5067338;28;20031;-72
2022/07/21 01:17:53;;;;;;;15.88;13.98;;;22.50;84.20;;;;;;5067497;28;20040;-72
2022/07/21 01:20:21;;;;;;;17.95;13.77;;;22.50;83.70;;;;;;5066192;28;20039;-72
2022/07/21 01:22:49;;;;;;;16.20;12.90;;;22.40;83.50;;;;;;5065431;28;20071;-72
2022/07/21 01:25:16;;;;;;;15.93;13.70;;;22.40;83.60;;;;;;5067462;28;20115;-72
2022/07/21 01:27:43;;;;;;;14.45;12.73;;;22.40;83.10;;;;;;5068312;28;20112;-72
2022/07/21 01:30:10;;;;;;;16.67;14.02;;;22.30;82.90;;;;;;5066969;28;20111;-73
2022/07/21 01:32:36;;;;;;;17.75;14.25;;;22.30;83.30;;;;;;5062070;28;20028;-73
2022/07/21 01:35:05;;;;;;;16.33;13.07;;;22.20;83.10;;;;;;5068157;28;20552;-73
2022/07/21 01:37:33;;;;;;;15.93;14.18;;;22.20;83.80;;;;;;5064249;28;20028;-72
2022/07/21 01:42:43;;;;;;;16.27;13.57;;;22.10;83.80;;;;;;5067763;28;20043;-71
2022/07/21 01:45:10;;;;;;;18.40;14.88;;;22.10;84.00;;;;;;5064888;28;20021;-71
2022/07/21 01:47:36;;;;;;;15.48;12.18;;;22.00;84.30;;;;;;5067005;28;20025;-72
2022/07/21 01:50:02;;;;;;;15.80;14.15;;;22.00;84.30;;;;;;5066269;28;20230;-72
2022/07/21 01:52:30;;;;;;;16.08;12.60;;;22.00;84.40;;;;;;5061362;28;20021;-72
2022/07/21 01:54:59;;;;;;;18.17;16.25;;;22.00;84.60;;;;;;5064237;28;20146;-72
2022/07/21 01:57:24;;;;;;;17.00;13.43;;;22.00;85.00;;;;;;5069465;28;20386;-73
2022/07/21 01:59:50;;;;;;;17.40;13.18;;;22.00;84.30;;;;;;5068254;28;20029;-72
2022/07/21 02:02:20;;;;;;;18.52;15.32;;;22.00;84.60;;;;;;5060572;28;20039;-73
2022/07/21 02:04:46;;;;;;;;;;;22.00;85.00;;;;;;5071551;28;20020;-72
2022/07/21 02:07:12;;;;;;;19.73;17.35;;;22.10;84.60;;;;;;5071498;28;20013;-72
2022/07/21 02:09:38;;;;;;;16.98;14.70;;;22.00;85.20;;;;;;5072363;28;20035;-73
2022/07/21 02:12:05;;;;;;;18.30;16.38;;;22.00;84.10;;;;;;5072288;28;20492;-72
2022/07/21 02:14:30;;;;;;;16.65;14.48;;;21.90;85.20;;;;;;5071449;28;20024;-73
2022/07/21 02:16:56;;;;;;;19.35;17.30;;;21.90;85.30;;;;;;5065509;28;20459;-72
2022/07/21 02:19:23;;;;;;;18.40;16.10;;;21.90;85.50;;;;;;5071706;28;20835;-73
2022/07/21 02:21:48;;;;;;;19.70;17.35;;;21.90;85.60;;;;;;5066176;28;20111;-72
2022/07/21 02:24:14;;;;;;;22.55;20.15;;;21.90;85.80;;;;;;5071898;28;20530;-73
2022/07/21 02:26:40;;;;;;;23.48;19.83;;;21.90;85.50;;;;;;5071388;28;20388;-72
2022/07/21 02:29:05;;;;;;;21.08;18.75;;;21.80;85.70;;;;;;5069364;28;20498;-73
2022/07/21 02:31:31;;;;;;;20.17;18.08;;;21.90;85.70;;;;;;5070075;28;20032;-72
2022/07/21 02:33:57;;;;;;;20.42;17.88;;;21.90;85.80;;;;;;5071603;28;20391;-72
2022/07/21 02:36:22;;;;;;;19.65;17.55;;;21.90;86.20;;;;;;5071161;28;20024;-72
2022/07/21 02:38:49;;;;;;;20.45;18.20;;;21.80;86.40;;;;;;5071504;28;20495;-72
2022/07/21 02:41:14;;;;;;;23.10;20.70;;;21.90;86.50;;;;;;5069861;28;20056;-72
2022/07/21 02:43:40;;;;;;;21.85;18.90;;;21.90;86.70;;;;;;5071168;28;20028;-72
2022/07/21 02:46:06;;;;;;;21.25;18.90;;;21.90;86.30;;;;;;5069599;28;20095;-72
2022/07/21 02:48:32;;;;;;;22.00;19.42;;;21.80;85.90;;;;;;5071107;28;20447;-72
2022/07/21 02:50:57;;;;;;;21.63;19.42;;;21.80;86.00;;;;;;5071507;28;20017;-72
2022/07/21 02:53:23;;;;;;;22.00;19.70;;;21.80;86.40;;;;;;5069195;28;20028;-72
2022/07/21 02:55:52;;;;;;;22.20;20.00;;;21.90;86.50;;;;;;5070918;28;20108;-72
2022/07/21 02:58:27;;;;;;;26.05;23.20;;;21.90;86.30;;;;;;5069605;28;20028;-72
2022/07/21 03:01:00;;;;;;;22.38;20.00;;;21.80;85.80;;;;;;5069411;28;20032;-72
2022/07/21 03:03:32;;;;;;;24.95;22.33;;;21.80;86.30;;;;;;5060449;28;20189;-73
2022/07/21 03:05:59;;;;;;;24.17;21.77;;;21.80;86.70;;;;;;5070641;28;20636;-72
2022/07/21 03:08:25;;;;;;;26.35;23.65;;;21.90;86.90;;;;;;5069151;28;20031;-72
2022/07/21 03:10:51;;;;;;;26.75;21.90;;;21.80;86.80;;;;;;5070730;28;20040;-72
2022/07/21 03:13:17;;;;;;;26.90;23.73;;;21.80;86.60;;;;;;5069798;28;20021;-73
2022/07/21 03:15:42;;;;;;;21.58;19.27;;;21.80;87.10;;;;;;5065971;28;20021;-72
2022/07/21 03:18:08;;;;;;;22.02;18.63;;;21.70;86.80;;;;;;5070535;28;20019;-73
2022/07/21 03:20:36;;;;;;;25.95;23.25;;;21.60;85.60;;;;;;5069219;28;20491;-72
2022/07/21 03:23:02;;;;;;;24.73;22.13;;;21.60;86.40;;;;;;5068641;28;20818;-72
2022/07/21 03:25:28;;;;;;;23.63;21.13;;;21.50;87.40;;;;;;5071199;28;20024;-72
2022/07/21 03:27:54;;;;;;;28.85;25.77;;;21.50;87.60;;;;;;5070182;28;20043;-73
2022/07/21 03:30:21;;;;;;;20.15;18.08;;;21.40;87.60;;;;;;5069356;28;20487;-72
2022/07/21 03:32:47;;;;;;;23.55;21.08;;;21.40;86.10;;;;;;5069481;28;20555;-72
2022/07/21 03:35:13;;;;;;;22.80;20.42;;;21.40;85.90;;;;;;5068532;28;20103;-72
2022/07/21 03:37:46;;;;;;;25.45;22.75;;;21.30;86.20;;;;;;5062231;28;20123;-72
2022/07/21 03:40:15;;;;;;;22.55;19.55;;;21.20;87.30;;;;;;5068520;28;20064;-72
2022/07/21 03:42:41;;;;;;;25.52;22.42;;;21.10;87.00;;;;;;5067866;28;20111;-73
2022/07/21 03:45:08;;;;;;;27.02;24.13;;;21.10;87.70;;;;;;5067922;28;20115;-72
2022/07/21 03:47:33;;;;;;;24.67;19.27;;;21.00;88.30;;;;;;5066066;28;20648;-72
2022/07/21 03:49:59;;;;;;;24.63;21.77;;;21.00;87.80;;;;;;5070192;28;20028;-72
2022/07/21 03:52:25;;;;;;;25.45;22.50;;;21.00;87.70;;;;;;5068226;28;20039;-73
2022/07/21 03:55:07;;;;;;;24.08;20.85;;;20.90;88.80;;;;;;5070079;28;20099;-72
2022/07/21 03:57:34;;;;;;;21.50;19.30;;;21.00;88.90;;;;;;5069755;28;20036;-72
2022/07/21 04:00:00;;;;;;;24.60;21.92;;;21.00;87.40;;;;;;5069442;28;20029;-73
2022/07/21 04:02:25;;;;;;;28.02;25.13;;;21.00;87.80;;;;;;5068222;28;20031;-72
2022/07/21 04:04:51;;;;;;;27.75;24.00;;;21.00;88.50;;;;;;5069564;28;20025;-73
2022/07/21 04:07:16;;;;;;;25.23;22.52;;;20.90;89.10;;;;;;5069442;28;20108;-73
2022/07/21 04:09:42;;;;;;;25.48;21.48;;;20.90;89.30;;;;;;5067252;28;20037;-73
2022/07/21 04:12:08;;;;;;;33.33;27.98;;;20.90;89.30;;;;;;5069768;28;20111;-73
2022/07/21 04:14:33;;;;;;;25.73;20.48;;;21.00;89.60;;;;;;5068942;28;20029;-73
2022/07/21 04:16:59;;;;;;;30.45;26.13;;;20.90;88.70;;;;;;5069438;28;20028;-72
2022/07/21 04:19:24;;;;;;;27.30;24.10;;;21.00;89.00;;;;;;5069455;28;20021;-74
2022/07/21 04:21:50;;;;;;;29.92;26.55;;;20.90;89.40;;;;;;5066862;28;20035;-73
2022/07/21 04:24:15;;;;;;;29.58;26.25;;;21.00;90.00;;;;;;5059742;28;20112;-73
2022/07/21 04:26:41;;;;;;;31.20;27.80;;;21.00;89.70;;;;;;5068970;28;20016;-73
2022/07/21 04:29:07;;;;;;;25.88;23.08;;;21.10;90.10;;;;;;5069526;28;20100;-73
2022/07/21 04:31:32;;;;;;;29.60;24.75;;;21.10;89.00;;;;;;5069898;28;20104;-73
2022/07/21 04:33:58;;;;;;;30.17;26.88;;;21.00;88.90;;;;;;5068460;28;20024;-74
2022/07/21 04:36:24;;;;;;;27.77;21.85;;;21.00;89.50;;;;;;5069195;28;20013;-73
2022/07/21 04:38:50;;;;;;;32.63;29.13;;;20.90;88.80;;;;;;5069050;28;20120;-73
2022/07/21 04:41:15;;;;;;;29.73;24.65;;;20.90;89.60;;;;;;5069127;28;20071;-73
2022/07/21 04:43:41;;;;;;;37.45;30.63;;;20.90;89.50;;;;;;5069037;28;20091;-73
2022/07/21 04:46:07;;;;;;;28.08;25.05;;;20.90;89.90;;;;;;5068549;28;20103;-73
2022/07/21 04:48:32;;;;;;;30.10;24.65;;;20.90;89.50;;;;;;5068991;28;20501;-73
2022/07/21 04:50:58;;;;;;;32.05;27.20;;;20.90;89.90;;;;;;5067847;28;20028;-73
2022/07/21 04:53:24;;;;;;;30.23;26.65;;;20.90;90.10;;;;;;5067583;28;20376;-73
2022/07/21 04:55:49;;;;;;;33.78;27.60;;;20.90;90.00;;;;;;5068849;28;20054;-73
2022/07/21 04:58:15;;;;;;;31.48;27.23;;;20.90;90.10;;;;;;5068914;28;20190;-73
2022/07/21 05:00:41;;;;;;;29.85;25.27;;;20.90;90.10;;;;;;5066769;28;20033;-72
2022/07/21 05:03:06;;;;;;;30.67;26.00;;;20.90;90.00;;;;;;5068577;28;20446;-73
2022/07/21 05:05:32;;;;;;;31.52;26.90;;;20.90;90.20;;;;;;5068611;28;20023;-73
2022/07/21 05:08:03;;;;;;;28.38;25.33;;;21.00;90.30;;;;;;5068610;28;20078;-73
2022/07/21 05:10:29;;;;;;;35.83;29.55;;;21.00;89.70;;;;;;5068400;28;20024;-73
2022/07/21 05:12:54;;;;;;;32.28;26.58;;;21.00;90.00;;;;;;5068921;28;20021;-73
2022/07/21 05:15:20;;;;;;;29.20;25.42;;;21.10;90.10;;;;;;5060643;28;20077;-73
2022/07/21 05:17:46;;;;;;;32.45;27.58;;;21.10;89.80;;;;;;5068311;28;20021;-74
2022/07/21 05:20:12;;;;;;;28.58;23.30;;;21.10;90.30;;;;;;5068316;28;20021;-73
2022/07/21 05:22:38;;;;;;;32.15;26.52;;;21.10;90.10;;;;;;5066771;28;20028;-74
2022/07/21 05:25:05;;;;;;;37.70;30.25;;;21.00;90.00;;;;;;5068092;28;20032;-73
2022/07/21 05:27:31;;;;;;;31.30;26.10;;;21.00;90.40;;;;;;5066932;28;20107;-74
2022/07/21 05:29:57;;;;;;;42.05;31.63;;;21.00;90.10;;;;;;5056689;28;20100;-74
2022/07/21 05:32:23;;;;;;;36.30;30.95;;;20.90;90.20;;;;;;5064260;28;20028;-73
2022/07/21 05:34:48;;;;;;;35.72;30.17;;;20.90;90.30;;;;;;5068277;28;20024;-73
2022/07/21 05:37:14;;;;;;;34.67;29.98;;;20.90;90.50;;;;;;5067723;28;20029;-73
2022/07/21 05:39:39;;;;;;;40.47;31.63;;;20.90;90.60;;;;;;5068055;28;20202;-74
2022/07/21 05:42:05;;;;;;;36.45;29.98;;;21.00;90.70;;;;;;5067537;28;20101;-74
2022/07/21 05:44:31;;;;;;;40.08;32.15;;;20.90;90.30;;;;;;5068290;28;20067;-74
2022/07/21 05:46:57;;;;;;;34.58;28.45;;;20.90;90.20;;;;;;5067546;28;20023;-73
2022/07/21 05:49:23;;;;;;;44.60;37.13;;;20.90;90.50;;;;;;5067243;28;20021;-74
2022/07/21 05:51:48;;;;;;;44.90;35.55;;;20.90;90.60;;;;;;5053581;28;20025;-73
2022/07/21 05:54:14;;;;;;;38.47;31.38;;;20.80;90.90;;;;;;5061839;28;20032;-74
2022/07/21 05:56:39;;;;;;;45.70;36.08;;;20.80;90.00;;;;;;5067737;28;20028;-74
2022/07/21 05:59:05;;;;;;;42.55;34.65;;;20.80;90.60;;;;;;5067796;28;20020;-73
2022/07/21 06:01:31;;;;;;;42.42;33.20;;;20.80;90.70;;;;;;5065983;28;20494;-74
2022/07/21 06:03:56;;;;;;;37.78;31.65;;;20.80;90.70;;;;;;5067652;28;20049;-74
2022/07/21 06:06:24;;;;;;;39.88;35.55;;;20.80;90.90;;;;;;5067437;28;20847;-73
2022/07/21 06:08:50;;;;;;;37.00;32.88;;;20.80;91.20;;;;;;5067637;28;20066;-73
2022/07/21 06:11:18;;;;;;;47.15;34.28;;;20.80;90.50;;;;;;5068268;28;20059;-72
2022/07/21 06:13:45;;;;;;;33.83;29.33;;;20.80;90.90;;;;;;5067513;28;20047;-73
2022/07/21 06:16:10;;;;;;;37.95;31.45;;;20.80;90.80;;;;;;5066485;28;20364;-73
2022/07/21 06:18:36;;;;;;;33.35;27.33;;;20.80;90.40;;;;;;5060571;28;20532;-73
2022/07/21 06:21:02;;;;;;;32.90;29.08;;;20.80;90.00;;;;;;5065923;28;20041;-73
2022/07/21 06:23:28;;;;;;;37.75;28.92;;;20.70;90.10;;;;;;5067889;28;20025;-74
2022/07/21 06:25:54;;;;;;;32.58;28.20;;;20.70;90.20;;;;;;5049432;28;20029;-74
2022/07/21 06:28:20;;;;;;;29.08;22.10;;;20.70;90.40;;;;;;5057330;28;20378;-74
2022/07/21 06:30:46;;;;;;;42.13;27.95;;;20.70;90.10;;;;;;5066353;28;20025;-74
2022/07/21 06:33:12;;;;;;;32.15;27.88;;;20.80;90.20;;;;;;5067631;28;20398;-74
2022/07/21 06:35:38;;;;;;;35.65;28.88;;;20.80;90.20;;;;;;5068045;28;20020;-75
2022/07/21 06:38:03;;;;;;;31.27;25.75;;;20.90;90.20;;;;;;5067270;28;20047;-74
2022/07/21 06:40:29;;;;;;;38.72;29.83;;;21.00;89.00;;;;;;5065567;28;20466;-75
2022/07/21 06:42:55;;;;;;;32.67;26.60;;;21.00;89.10;;;;;;5055925;28;20040;-74
2022/07/21 06:45:23;;;;;;;28.90;25.02;;;21.10;86.50;;;;;;5067537;28;20406;-74
2022/07/21 06:47:49;;;;;;;31.10;27.67;;;21.20;88.30;;;;;;5061735;28;20029;-74
2022/07/21 06:50:15;;;;;;;34.08;27.48;;;21.30;88.50;;;;;;5066163;28;20028;-74
2022/07/21 06:52:41;;;;;;;38.75;29.65;;;21.30;87.30;;;;;;5070568;28;20028;-74
2022/07/21 06:55:07;;;;;;;32.83;27.08;;;21.30;86.80;;;;;;5057888;28;20134;-73
2022/07/21 06:57:34;;;;;;;36.90;29.52;;;21.40;86.20;;;;;;5058076;28;20020;-74
2022/07/21 07:00:00;;;;;;;30.40;26.58;;;21.50;87.10;;;;;;5060185;28;20047;-74
2022/07/21 07:02:25;;;;;;;36.17;30.80;;;21.50;86.50;;;;;;5069670;28;20028;-72
2022/07/21 07:04:51;;;;;;;36.15;30.60;;;21.50;87.10;;;;;;5071302;28;20427;-74
2022/07/21 07:07:16;;;;;;;37.15;30.77;;;21.50;86.30;;;;;;5071208;28;20134;-75
2022/07/21 07:09:42;;;;;;;32.70;26.95;;;21.50;85.90;;;;;;5069356;28;20122;-74
2022/07/21 07:12:08;;;;;;;35.58;29.88;;;21.50;85.90;;;;;;5067456;28;20028;-75
2022/07/21 07:14:35;;;;;;;38.88;32.15;;;21.50;86.10;;;;;;5060752;28;20012;-75
2022/07/21 07:17:02;;;;;;;39.55;31.60;;;21.50;85.90;;;;;;5059952;28;20020;-75
2022/07/21 07:19:29;;;;;;;28.10;21.85;;;21.50;85.90;;;;;;5060064;28;20056;-74
2022/07/21 07:21:55;;;;;;;32.55;27.50;;;21.50;83.90;;;;;;5063316;28;20106;-75
2022/07/21 07:24:21;;;;;;;19.95;16.60;;;21.50;84.60;;;;;;5060794;28;20016;-72
2022/07/21 07:26:48;;;;;;;18.92;14.93;;;21.50;84.80;;;;;;5058673;28;20103;-72
2022/07/21 07:29:14;;;;;;;26.45;16.13;;;21.60;84.30;;;;;;5059167;28;20062;-72
2022/07/21 07:31:40;;;;;;;19.08;16.13;;;21.90;83.90;;;;;;5060725;28;20123;-73
2022/07/21 07:34:06;;;;;;;21.58;17.35;;;22.10;82.70;;;;;;5058724;28;20076;-73
2022/07/21 07:36:32;;;;;;;26.13;19.73;;;22.20;81.80;;;;;;5062053;28;20028;-72
2022/07/21 07:38:59;;;;;;;16.50;12.27;;;22.20;80.50;;;;;;5058726;28;20023;-71
2022/07/21 07:41:26;;;;;;;25.05;18.58;;;22.40;79.10;;;;;;5059080;28;20048;-72
2022/07/21 07:43:52;;;;;;;30.17;25.00;;;22.50;79.30;;;;;;5056139;28;20790;-70
2022/07/21 07:46:19;;;;;;;19.35;15.10;;;22.40;79.70;;;;;;5059165;28;20458;-71
2022/07/21 07:48:45;;;;;;;16.58;12.30;;;22.50;77.40;;;;;;5058019;28;20023;-71
2022/07/21 07:51:12;;;;;;;17.95;15.02;;;22.70;75.10;;;;;;5060447;28;20020;-72
2022/07/21 07:53:39;;;;;;;18.73;12.60;;;22.70;76.60;;;;;;5059626;28;20062;-71
2022/07/21 07:56:05;;;;;;;28.20;17.30;;;22.70;76.60;;;;;;5057525;28;20025;-70
2022/07/21 07:58:33;;;;;;;18.20;14.20;;;23.00;74.70;;;;;;5061727;28;20103;-71
2022/07/21 08:00:58;;;;;;;14.20;10.90;;;23.10;74.00;;;;;;5057971;28;20846;-71
2022/07/21 08:03:25;;;;;;;24.13;15.82;;;23.20;71.70;;;;;;5061485;28;20096;-71
2022/07/21 08:05:53;;;;;;;23.33;17.25;;;23.30;74.30;;;;;;5058554;28;20169;-71
2022/07/21 08:08:20;;;;;;;19.83;13.90;;;23.40;72.90;;;;;;5064010;28;20029;-71
2022/07/21 08:10:46;;;;;;;18.70;13.65;;;23.40;71.20;;;;;;5069297;28;20024;-72
2022/07/21 08:13:14;;;;;;;25.73;16.85;;;23.40;70.10;;;;;;5067580;28;20151;-71
2022/07/21 08:15:41;;;;;;;21.25;14.52;;;23.40;70.40;;;;;;5067844;28;20407;-70
2022/07/21 08:18:07;;;;;;;26.08;22.23;;;23.50;71.20;;;;;;5068406;28;20070;-71
2022/07/21 08:20:33;;;;;;;24.55;18.42;;;23.20;73.10;;;;;;5068691;28;20037;-70
2022/07/21 08:22:59;;;;;;;23.27;17.42;;;23.10;71.80;;;;;;5063818;28;20123;-71
2022/07/21 08:25:25;;;;;;;25.50;19.30;;;23.00;71.40;;;;;;5054021;28;20164;-70
2022/07/21 08:27:50;;;;;;;21.10;16.13;;;23.10;72.10;;;;;;5063207;28;20021;-71
2022/07/21 08:30:16;;;;;;;23.92;17.23;;;23.20;71.50;;;;;;5069350;28;20031;-71
2022/07/21 08:32:42;;;;;;;27.63;22.17;;;23.40;70.50;;;;;;5067109;28;20023;-73
2022/07/21 08:35:11;;;;;;;21.30;13.55;;;23.40;74.00;;;;;;5063846;28;20048;-73
2022/07/21 08:37:38;;;;;;;18.27;13.38;;;23.30;69.80;;;;;;5062064;28;20124;-73
2022/07/21 08:40:05;;;;;;;18.10;13.23;;;23.30;70.40;;;;;;5068432;28;20139;-74
2022/07/21 08:42:31;;;;;;;26.40;19.17;;;23.50;69.90;;;;;;5068468;28;20023;-74
2022/07/21 08:44:57;;;;;;;27.38;20.00;;;23.50;71.00;;;;;;5066108;28;20033;-74
2022/07/21 08:47:24;;;;;;;16.38;12.73;;;23.60;71.60;;;;;;5052906;28;20358;-73
2022/07/21 08:49:50;;;;;;;24.95;15.18;;;23.60;69.40;;;;;;5066284;28;20125;-73
2022/07/21 08:52:15;;;;;;;21.00;14.07;;;23.60;69.90;;;;;;5066769;28;20716;-73
2022/07/21 08:54:41;;;;;;;26.17;20.65;;;23.60;69.70;;;;;;5057082;28;20104;-72
2022/07/21 08:57:06;;;;;;;26.98;22.00;;;23.60;72.20;;;;;;5068506;28;20024;-74
2022/07/21 08:59:32;;;;;;;17.35;15.25;;;23.50;72.10;;;;;;5057292;28;20569;-73
2022/07/21 09:01:58;;;;;;;24.15;18.65;;;23.30;72.40;;;;;;5068615;28;20032;-71
2022/07/21 09:04:30;;;;;;;17.98;11.43;;;23.10;71.60;;;;;;5067449;28;20435;-72
2022/07/21 09:07:05;;;;;;;18.80;11.13;;;23.00;70.90;;;;;;5067273;28;20082;-73
2022/07/21 09:09:32;;;;;;;18.02;11.27;;;23.00;70.80;;;;;;5066523;28;20390;-72
2022/07/21 09:11:59;;;;;;;19.55;14.65;;;23.20;70.20;;;;;;5048257;28;20083;-72
2022/07/21 09:14:29;;;;;;;29.67;22.42;;;23.20;70.50;;;;;;5057375;28;20111;-72
2022/07/21 09:16:57;;;;;;;30.45;21.98;;;23.20;74.40;;;;;;5053035;28;20028;-75
2022/07/21 09:19:33;;;;;;;27.75;19.00;;;22.90;76.90;;;;;;5050332;28;20546;-75
2022/07/21 09:22:07;;;;;;;17.30;12.70;;;22.60;75.90;;;;;;5051378;28;20068;-72
2022/07/21 09:24:39;;;;;;;16.65;11.48;;;22.40;74.20;;;;;;5049357;28;20028;-73
2022/07/21 09:27:09;;;;;;;14.02;10.48;;;22.30;74.50;;;;;;5051781;28;20906;-71
2022/07/21 09:29:47;;;;;;;16.45;10.88;;;22.60;73.00;;;;;;5053207;28;20108;-71
2022/07/21 09:32:16;;;;;;;16.00;12.00;;;22.80;72.80;;;;;;5049845;28;20024;-72
2022/07/21 09:34:45;;;;;;;12.63;10.00;;;23.00;71.80;;;;;;5052891;28;20099;-71
2022/07/21 09:37:11;;;;;;;13.35;9.40;;;23.20;71.80;;;;;;5047635;28;20016;-71
2022/07/21 09:39:40;;;;;;;12.13;7.82;;;23.20;70.80;;;;;;5053480;28;20560;-72
2022/07/21 09:42:28;;;;;;;16.63;14.23;;;23.40;69.70;;;;;;5048263;28;20032;-76
2022/07/21 09:45:03;;;;;;;17.77;11.95;;;23.50;75.30;;;;;;5053347;28;20738;-73
2022/07/21 09:47:31;;;;;;;15.65;12.02;;;23.20;76.80;;;;;;5047293;28;20040;-75
2022/07/21 09:49:58;;;;;;;13.75;11.13;;;22.90;78.90;;;;;;5053534;28;20032;-75
2022/07/21 09:52:41;;;;;;;13.88;11.68;;;22.60;81.40;;;;;;5047937;28;20029;-76
2022/07/21 09:55:13;;;;;;;13.50;10.23;;;22.30;82.00;;;;;;5052623;28;20023;-76
2022/07/21 09:57:40;;;;;;;14.55;11.07;;;22.10;83.00;;;;;;5052849;28;20032;-74
2022/07/21 10:00:09;;;;;;;10.93;8.45;;;21.90;84.70;;;;;;5053388;28;20017;-72
2022/07/21 10:02:35;;;;;;;13.68;10.68;;;21.80;84.80;;;;;;5049718;28;20035;-75
2022/07/21 10:05:04;;;;;;;11.68;9.60;;;21.70;86.10;;;;;;5049810;28;20021;-75
2022/07/21 10:07:31;;;;;;;13.95;11.23;;;21.60;86.00;;;;;;5051863;28;20540;-74
2022/07/21 10:09:58;;;;;;;11.75;9.80;;;21.60;87.60;;;;;;5050969;28;20078;-75
2022/07/21 10:12:26;;;;;;;17.35;12.75;;;21.50;87.60;;;;;;5052500;28;20017;-74
2022/07/21 10:14:52;;;;;;;11.60;8.95;;;21.40;88.80;;;;;;5054290;28;20032;-78
2022/07/21 10:17:20;;;;;;;13.50;10.25;;;21.30;88.50;;;;;;5052690;28;20032;-74
2022/07/21 10:19:58;;;;;;;15.07;12.27;;;21.20;90.30;;;;;;5055080;28;20098;-73
2022/07/21 10:22:48;;;;;;;13.98;10.65;;;21.10;90.80;;;;;;5050716;28;20036;-73
2022/07/21 10:25:14;;;;;;;13.82;12.23;;;21.10;90.90;;;;;;5058703;28;20033;-74
2022/07/21 10:28:17;;;;;;;13.13;9.60;;;21.10;91.20;;;;;;5055897;28;20063;-74
2022/07/21 10:30:49;;;;;;;10.73;9.10;;;21.00;91.10;;;;;;5051254;28;20028;-76
2022/07/21 10:33:17;;;;;;;12.55;9.63;;;21.00;91.10;;;;;;5052488;28;20090;-75
2022/07/21 10:35:52;;;;;;;15.60;11.02;;;20.90;91.60;;;;;;5052800;28;20025;-74
2022/07/21 10:38:33;;;;;;;13.10;10.85;;;20.90;91.80;;;;;;5055228;28;20032;-75
2022/07/21 10:41:00;;;;;;;15.32;12.00;;;20.90;91.90;;;;;;5052691;28;20129;-75
2022/07/21 10:43:26;;;;;;;14.60;12.20;;;20.90;92.30;;;;;;5054063;28;20025;-75
2022/07/21 10:45:53;;;;;;;13.25;11.55;;;20.90;92.20;;;;;;5056498;28;20025;-74
2022/07/21 10:48:39;;;;;;;12.15;9.73;;;20.90;92.10;;;;;;5053584;28;20085;-75
2022/07/21 10:51:09;;;;;;;7.93;4.68;;;20.90;90.60;;;;;;5053809;28;20494;-75
2022/07/21 10:53:36;;;;;;;10.73;8.02;;;21.00;86.30;;;;;;5050599;28;20070;-74
2022/07/21 10:56:03;;;;;;;10.63;9.43;;;21.10;85.70;;;;;;5051662;28;20021;-72
2022/07/21 10:58:34;;;;;;;7.22;4.32;;;21.10;87.70;;;;;;5052489;28;20028;-73
2022/07/21 11:01:02;;;;;;;10.63;7.40;;;21.20;84.20;;;;;;5050980;28;20032;-74
2022/07/21 11:03:34;;;;;;;11.07;8.30;;;21.40;83.50;;;;;;5058302;28;20112;-73
2022/07/21 11:06:09;;;;;;;8.20;5.97;;;21.50;88.10;;;;;;5066989;28;20513;-72
2022/07/21 11:08:37;;;;;;;6.20;3.72;;;21.50;84.70;;;;;;5055916;28;20027;-73
2022/07/21 11:11:16;;;;;;;7.90;5.45;;;21.50;82.90;;;;;;5068870;28;20039;-74
2022/07/21 11:14:04;;;;;;;6.90;5.05;;;21.50;85.60;;;;;;5058279;28;20054;-74
2022/07/21 11:17:03;;;;;;;7.43;4.55;;;21.50;84.20;;;;;;5057835;28;20048;-74
2022/07/21 11:19:41;;;;;;;7.93;4.85;;;21.50;84.80;;;;;;5060761;28;20085;-74
2022/07/21 11:22:17;;;;;;;7.43;2.60;;;21.50;86.40;;;;;;5056311;28;20495;-74
2022/07/21 11:24:49;;;;;;;8.93;4.43;;;21.50;82.90;;;;;;5061073;28;20017;-74
2022/07/21 11:27:19;;;;;;;8.18;4.93;;;21.50;84.80;;;;;;5062263;28;20090;-76
2022/07/21 11:29:46;;;;;;;8.05;5.50;;;21.50;84.60;;;;;;5067595;28;20039;-74
2022/07/21 11:32:13;;;;;;;9.40;6.05;;;21.50;87.40;;;;;;5069949;28;20103;-75
2022/07/21 11:34:51;;;;;;;7.13;5.68;;;21.40;89.80;;;;;;5063403;28;20637;-74
2022/07/21 11:37:32;;;;;;;7.75;5.68;;;21.20;90.20;;;;;;5060465;28;20432;-75
2022/07/21 11:39:58;;;;;;;11.13;6.68;;;21.20;90.80;;;;;;5065225;28;20040;-75
2022/07/21 11:42:27;;;;;;;10.00;7.78;;;21.20;91.10;;;;;;5070445;28;20117;-75
2022/07/21 11:44:53;;;;;;;9.98;7.40;;;21.20;91.40;;;;;;5069482;28;20024;-75
2022/07/21 11:47:25;;;;;;;10.10;7.50;;;21.20;91.20;;;;;;5063051;28;20021;-75
2022/07/21 11:49:57;;;;;;;9.73;8.13;;;21.20;91.50;;;;;;5054034;28;20399;-75
2022/07/21 11:52:32;;;;;;;9.68;7.88;;;21.20;91.50;;;;;;5049659;28;20033;-74
2022/07/21 11:54:59;;;;;;;10.75;8.25;;;21.20;91.50;;;;;;5059433;28;20040;-76
2022/07/21 11:57:26;;;;;;;11.98;10.68;;;21.20;91.60;;;;;;5053843;28;20017;-76
2022/07/21 11:59:56;;;;;;;12.52;10.63;;;21.00;91.60;;;;;;5055023;28;20519;-79
2022/07/21 12:02:24;;;;;;;11.90;10.43;;;20.90;91.60;;;;;;5053469;28;20059;-77
2022/07/21 12:04:55;;;;;;;15.07;12.15;;;20.80;91.50;;;;;;5055596;28;20096;-79
2022/07/21 12:07:30;;;;;;;15.32;12.20;;;20.70;91.70;;;;;;5055506;28;20121;-77
2022/07/21 12:10:08;;;;;;;13.57;10.93;;;20.60;91.90;;;;;;5054163;28;20035;-75
2022/07/21 12:12:45;;;;;;;15.20;13.60;;;20.60;91.80;;;;;;5055336;28;20474;-75
2022/07/21 12:15:29;;;;;;;18.52;12.88;;;20.70;91.70;;;;;;5055998;28;20481;-74
2022/07/21 12:17:56;;;;;;;16.52;13.30;;;20.70;91.50;;;;;;5053282;28;20037;-76
2022/07/21 12:20:28;;;;;;;18.50;14.00;;;20.70;91.80;;;;;;5055422;28;20101;-76
2022/07/21 12:22:56;;;;;;;16.73;14.48;;;20.70;91.80;;;;;;5054634;28;20028;-74
2022/07/21 12:25:38;;;;;;;13.15;11.25;;;20.70;92.10;;;;;;5052415;28;20017;-75
2022/07/21 12:28:06;;;;;;;15.95;12.57;;;20.70;92.10;;;;;;5058495;28;20552;-75
2022/07/21 12:30:40;;;;;;;14.27;10.25;;;20.80;92.00;;;;;;5056295;28;20501;-75
2022/07/21 12:33:12;;;;;;;15.90;12.70;;;20.80;91.70;;;;;;5053248;28;20029;-75
2022/07/21 12:35:40;;;;;;;14.95;13.07;;;20.90;91.50;;;;;;5055060;28;20078;-74